Time;durP1;ratioP1;P1;durP2;ratioP2;P2;SDS_P1;SDS_P2;PMS_P1;PMS_P2;Temp;Humidity;BMP_temperature;BMP_pressure;BME280_temperature;BME280_humidity;BME280_pressure;Samples;Min_cycle;Max_cycle;Signal;HPM_P1;HPM_P2
2021/01/31 00:00:43;;;;;;;321.00;35.15;;;-3.40;99.90;;;;;;5105545;28;20118;-89
2021/01/31 00:03:13;;;;;;;423.20;41.53;;;-3.40;99.90;;;;;;5080853;28;20044;-88
2021/01/31 00:05:39;;;;;;;367.65;33.92;;;-3.40;99.90;;;;;;5082917;28;20048;-88
2021/01/31 00:08:10;;;;;;;158.50;30.80;;;-3.40;99.90;;;;;;5103770;28;20044;-88
2021/01/31 00:10:36;;;;;;;108.75;29.67;;;-3.40;99.90;;;;;;5107529;28;20044;-88
2021/01/31 00:13:03;;;;;;;89.50;25.40;;;-3.40;99.90;;;;;;5093833;28;20052;-90
2021/01/31 00:15:32;;;;;;;317.40;32.22;;;-3.40;99.90;;;;;;5086595;28;20122;-91
2021/01/31 00:17:58;;;;;;;215.35;30.10;;;-3.40;99.90;;;;;;5100725;28;20444;-89
2021/01/31 00:20:30;;;;;;;415.38;35.60;;;-3.40;99.90;;;;;;5107045;28;20040;-88
2021/01/31 00:22:56;;;;;;;338.10;28.58;;;-3.30;99.90;;;;;;5101911;28;20127;-92
2021/01/31 00:25:23;;;;;;;210.30;26.60;;;-3.30;99.90;;;;;;5088312;28;20479;-88
2021/01/31 00:27:49;;;;;;;441.67;34.00;;;-3.30;99.90;;;;;;5083873;28;20067;-88
2021/01/31 00:30:17;;;;;;;275.63;28.50;;;-3.30;99.90;;;;;;5105240;28;20262;-88
2021/01/31 00:32:43;;;;;;;618.38;37.53;;;-3.30;99.90;;;;;;5076205;28;20044;-88
2021/01/31 00:35:10;;;;;;;354.92;28.50;;;-3.20;99.90;;;;;;5099224;28;20044;-90
2021/01/31 00:37:36;;;;;;;414.02;28.33;;;-3.30;99.90;;;;;;5109531;28;20514;-89
2021/01/31 00:40:03;;;;;;;397.52;26.90;;;-3.30;99.90;;;;;;5090703;28;20064;-89
2021/01/31 00:42:29;;;;;;;753.83;34.25;;;-3.30;99.90;;;;;;5078846;28;20102;-89
2021/01/31 00:44:55;;;;;;;826.00;39.00;;;-3.40;99.90;;;;;;5070252;28;20044;-91
2021/01/31 00:47:21;;;;;;;846.10;37.17;;;-3.40;99.90;;;;;;5069816;28;20047;-89
2021/01/31 00:49:51;;;;;;;611.03;33.35;;;-3.40;99.90;;;;;;5080266;28;20039;-89
2021/01/31 00:52:19;;;;;;;509.90;27.58;;;-3.40;99.90;;;;;;5069344;28;20498;-89
2021/01/31 00:54:46;;;;;;;777.60;36.65;;;-3.40;99.90;;;;;;5100544;28;20071;-91
2021/01/31 00:57:12;;;;;;;500.45;29.95;;;-3.50;99.90;;;;;;5092125;28;20512;-88
2021/01/31 00:59:37;;;;;;;382.17;26.10;;;-3.50;99.90;;;;;;5090713;28;20043;-89
2021/01/31 01:02:25;;;;;;;570.65;31.20;;;-3.50;99.90;;;;;;5091943;28;20131;-89
2021/01/31 01:04:51;;;;;;;231.15;21.98;;;-3.50;99.90;;;;;;5091135;28;20093;-89
2021/01/31 01:07:18;;;;;;;299.25;23.42;;;-3.50;99.90;;;;;;5056982;28;20043;-88
2021/01/31 01:09:46;;;;;;;613.95;34.67;;;-3.50;99.90;;;;;;5086064;28;20059;-88
2021/01/31 01:12:12;;;;;;;395.90;27.23;;;-3.50;99.90;;;;;;5080336;28;20043;-89
2021/01/31 01:14:38;;;;;;;553.45;30.60;;;-3.50;99.90;;;;;;5070039;28;20067;-89
2021/01/31 01:17:04;;;;;;;430.50;23.58;;;-3.50;99.90;;;;;;5047353;28;20040;-87
2021/01/31 01:19:30;;;;;;;377.63;23.85;;;-3.60;99.90;;;;;;5091874;28;20044;-88
2021/01/31 01:21:57;;;;;;;282.50;20.67;;;-3.60;99.90;;;;;;5073896;28;20127;-89
2021/01/31 01:24:23;;;;;;;497.55;27.70;;;-3.60;99.90;;;;;;5073604;28;20051;-90
2021/01/31 01:26:49;;;;;;;430.60;25.92;;;-3.60;99.90;;;;;;5091825;28;20055;-88
2021/01/31 01:29:15;;;;;;;256.38;22.52;;;-3.60;99.90;;;;;;5073527;28;20083;-88
2021/01/31 01:31:41;;;;;;;479.88;25.75;;;-3.70;99.90;;;;;;5091693;28;20044;-89
2021/01/31 01:34:07;;;;;;;452.85;23.80;;;-3.70;99.90;;;;;;5073244;28;20077;-88
2021/01/31 01:36:33;;;;;;;351.00;20.48;;;-3.80;99.90;;;;;;5073540;28;20115;-89
2021/01/31 01:38:59;;;;;;;178.07;19.02;;;-3.80;99.90;;;;;;5088492;28;20047;-92
2021/01/31 01:41:26;;;;;;;195.20;19.60;;;-3.90;99.90;;;;;;5088056;28;20090;-89
2021/01/31 01:43:53;;;;;;;174.25;18.05;;;-4.00;99.90;;;;;;5067888;28;20124;-89
2021/01/31 01:46:18;;;;;;;158.32;18.60;;;-4.00;99.90;;;;;;5065575;28;20480;-89
2021/01/31 01:48:46;;;;;;;189.77;18.75;;;-4.10;99.90;;;;;;5055452;28;20041;-89
2021/01/31 01:51:15;;;;;;;190.40;25.23;;;-4.10;99.90;;;;;;5081373;28;20122;-89
2021/01/31 01:53:41;;;;;;;118.72;17.52;;;-4.20;99.90;;;;;;5056457;28;20108;-91
2021/01/31 01:56:25;;;;;;;122.68;17.52;;;-4.20;99.90;;;;;;5049508;28;20068;-89
2021/01/31 01:58:55;;;;;;;39.83;17.05;;;-4.30;99.90;;;;;;5077259;28;20502;-89
2021/01/31 02:01:22;;;;;;;39.53;19.42;;;-4.30;99.90;;;;;;5088248;28;20112;-89
2021/01/31 02:03:51;;;;;;;36.58;15.80;;;-4.40;99.90;;;;;;5113105;28;20399;-89
2021/01/31 02:06:22;;;;;;;31.33;17.20;;;-4.40;99.90;;;;;;5093723;28;20040;-90
2021/01/31 02:08:49;;;;;;;48.70;16.17;;;-4.40;99.90;;;;;;5109661;28;20044;-89
2021/01/31 02:11:16;;;;;;;110.43;20.65;;;-4.50;99.90;;;;;;5111660;28;20070;-90
2021/01/31 02:13:47;;;;;;;38.13;18.10;;;-4.50;99.90;;;;;;5101516;28;20047;-89
2021/01/31 02:16:26;;;;;;;32.08;17.25;;;-4.60;99.90;;;;;;5108640;28;20036;-89
2021/01/31 02:19:19;;;;;;;37.45;18.00;;;-4.60;99.90;;;;;;5106611;28;20043;-89
2021/01/31 02:22:02;;;;;;;30.80;16.17;;;-4.60;99.90;;;;;;5105099;28;20123;-92
2021/01/31 02:25:01;;;;;;;28.00;15.45;;;-4.70;99.90;;;;;;5111253;28;20038;-90
2021/01/31 02:28:08;;;;;;;30.02;15.93;;;-4.70;99.90;;;;;;5099644;28;20044;-89
2021/01/31 02:30:34;;;;;;;24.98;13.77;;;-4.80;99.90;;;;;;5104435;28;20043;-89
2021/01/31 02:33:21;;;;;;;24.48;14.40;;;-4.90;99.90;;;;;;5096345;28;20046;-88
2021/01/31 02:35:49;;;;;;;27.58;14.88;;;-4.90;99.90;;;;;;5105571;28;20062;-90
2021/01/31 02:38:30;;;;;;;33.95;15.60;;;-4.90;99.90;;;;;;5082260;28;20450;-88
2021/01/31 02:41:07;;;;;;;56.10;16.63;;;-5.00;99.90;;;;;;5114083;28;20067;-88
2021/01/31 02:43:40;;;;;;;48.80;15.77;;;-5.00;99.90;;;;;;5096536;28;20040;-90
2021/01/31 02:46:23;;;;;;;130.32;17.58;;;-5.00;99.90;;;;;;5106785;28;20043;-92
2021/01/31 02:48:58;;;;;;;128.30;16.45;;;-5.00;99.90;;;;;;5102272;28;20377;-89
2021/01/31 02:51:29;;;;;;;124.65;17.40;;;-5.00;99.90;;;;;;5109291;28;20120;-90
2021/01/31 02:54:16;;;;;;;119.38;16.77;;;-5.00;99.90;;;;;;5114689;28;20058;-90
2021/01/31 02:57:01;;;;;;;117.25;16.55;;;-4.90;99.90;;;;;;5114779;28;20506;-90
2021/01/31 02:59:33;;;;;;;;;;;-4.90;99.90;;;;;;5105193;28;20052;-90
2021/01/31 03:02:01;;;;;;;;;;;-4.90;99.90;;;;;;5110792;28;19927;-90
2021/01/31 03:04:42;;;;;;;74.75;15.55;;;-4.90;99.90;;;;;;5101837;28;20487;-90
2021/01/31 03:07:12;;;;;;;96.38;17.92;;;-4.90;99.90;;;;;;5112918;28;20043;-91
2021/01/31 03:09:45;;;;;;;71.13;15.57;;;-5.00;99.90;;;;;;5113638;28;20039;-90
2021/01/31 03:12:16;;;;;;;106.53;15.93;;;-5.00;99.90;;;;;;5112919;28;20293;-92
2021/01/31 03:14:51;;;;;;;77.80;13.15;;;-5.00;99.90;;;;;;5101126;28;20043;-89
2021/01/31 03:17:31;;;;;;;45.88;13.30;;;-5.10;99.90;;;;;;5113451;28;20044;-89
2021/01/31 03:20:07;;;;;;;30.60;12.30;;;-5.30;99.90;;;;;;5114400;28;20088;-89
2021/01/31 03:22:47;;;;;;;20.77;12.63;;;-5.30;99.90;;;;;;5099680;28;20146;-89
2021/01/31 03:25:19;;;;;;;21.17;13.35;;;-5.40;99.90;;;;;;5113988;28;20047;-89
2021/01/31 03:27:45;;;;;;;54.15;14.75;;;-5.40;99.90;;;;;;5114215;28;20120;-88
2021/01/31 03:30:15;;;;;;;37.88;13.93;;;-5.40;99.90;;;;;;5087284;28;20036;-90
2021/01/31 03:32:55;;;;;;;42.17;15.40;;;-5.40;99.90;;;;;;5109448;28;20051;-88
2021/01/31 03:35:40;;;;;;;25.25;13.60;;;-5.40;99.90;;;;;;5102419;28;20059;-89
2021/01/31 03:38:33;;;;;;;24.25;13.38;;;-5.50;99.90;;;;;;5098427;28;20044;-89
2021/01/31 03:41:04;;;;;;;23.17;13.07;;;-5.50;99.90;;;;;;5099103;28;20119;-88
2021/01/31 03:43:30;;;;;;;20.58;13.20;;;-5.50;99.90;;;;;;5113386;28;20063;-89
2021/01/31 03:46:02;;;;;;;18.42;11.13;;;-5.60;99.90;;;;;;5101736;28;20090;-89
2021/01/31 03:48:34;;;;;;;19.92;12.15;;;-5.60;99.90;;;;;;5107020;28;20070;-87
2021/01/31 03:51:00;;;;;;;22.60;13.43;;;-5.70;99.90;;;;;;5104261;28;20044;-88
2021/01/31 03:53:26;;;;;;;18.40;11.05;;;-5.80;99.90;;;;;;5098881;28;20520;-89
2021/01/31 03:55:53;;;;;;;19.67;11.90;;;-5.80;99.90;;;;;;5095345;28;20043;-89
2021/01/31 03:58:23;;;;;;;19.42;11.65;;;-5.80;99.90;;;;;;5110804;28;20043;-88
2021/01/31 04:00:56;;;;;;;20.95;12.65;;;-5.80;99.90;;;;;;5093986;28;20460;-88
2021/01/31 04:03:27;;;;;;;42.42;11.23;;;-5.70;99.90;;;;;;5094360;28;20364;-89
2021/01/31 04:06:16;;;;;;;56.90;13.10;;;-5.60;99.90;;;;;;5087030;28;20036;-89
2021/01/31 04:08:42;;;;;;;41.83;11.13;;;-5.70;99.90;;;;;;5110582;28;20053;-89
2021/01/31 04:11:08;;;;;;;63.88;13.13;;;-5.80;99.90;;;;;;5074767;28;20051;-89
2021/01/31 04:13:35;;;;;;;30.08;12.98;;;-5.80;99.90;;;;;;5069336;28;20039;-90
2021/01/31 04:16:04;;;;;;;41.20;12.60;;;-5.90;99.90;;;;;;5112905;28;20040;-89
2021/01/31 04:18:30;;;;;;;95.40;14.98;;;-5.90;99.90;;;;;;5094447;28;20063;-89
2021/01/31 04:20:56;;;;;;;48.10;12.68;;;-5.80;99.90;;;;;;5087279;28;20043;-88
2021/01/31 04:23:22;;;;;;;33.88;12.48;;;-5.90;99.90;;;;;;5075324;28;20052;-88
2021/01/31 04:25:49;;;;;;;19.15;11.85;;;-5.80;99.90;;;;;;5107188;28;20039;-88
2021/01/31 04:28:18;;;;;;;54.40;13.27;;;-5.80;99.90;;;;;;5113005;28;20039;-93
2021/01/31 04:30:46;;;;;;;21.60;11.55;;;-5.70;99.90;;;;;;5113115;28;20044;-87
2021/01/31 04:33:13;;;;;;;21.00;12.23;;;-5.70;99.90;;;;;;5111858;28;20425;-88
2021/01/31 04:35:40;;;;;;;25.20;13.80;;;-5.80;99.90;;;;;;5094834;28;20484;-90
2021/01/31 04:38:06;;;;;;;22.02;11.55;;;-5.80;99.90;;;;;;5112433;28;20498;-90
2021/01/31 04:40:34;;;;;;;21.77;12.30;;;-5.90;99.90;;;;;;5111903;28;20035;-87
2021/01/31 04:43:03;;;;;;;21.60;13.15;;;-5.90;99.90;;;;;;5112714;28;20044;-89
2021/01/31 04:45:28;;;;;;;18.25;11.57;;;-5.90;99.90;;;;;;5113018;28;20031;-87
2021/01/31 04:48:32;;;;;;;20.33;12.40;;;-6.00;99.90;;;;;;5077730;28;20092;-88
2021/01/31 04:51:11;;;;;;;20.63;13.05;;;-6.00;99.90;;;;;;5112739;28;20376;-89
2021/01/31 04:53:52;;;;;;;18.83;11.25;;;-6.00;99.90;;;;;;5112569;28;20057;-87
2021/01/31 04:56:36;;;;;;;;;;;-6.00;99.90;;;;;;5113694;28;20048;-89
2021/01/31 04:59:35;;;;;;;16.33;10.13;;;-6.10;99.90;;;;;;5075133;28;19920;-88
2021/01/31 05:02:17;;;;;;;16.45;10.73;;;-6.20;99.90;;;;;;5095021;28;20052;-88
2021/01/31 05:05:03;;;;;;;18.52;11.48;;;-6.10;99.90;;;;;;5112684;28;20062;-88
2021/01/31 05:07:46;;;;;;;20.05;11.55;;;-6.10;99.90;;;;;;5090904;28;20471;-88
2021/01/31 05:10:12;;;;;;;18.13;11.68;;;-6.10;99.90;;;;;;5107546;28;20039;-88
2021/01/31 05:12:57;;;;;;;17.15;10.70;;;-6.00;99.90;;;;;;5110880;28;20180;-88
2021/01/31 05:15:25;;;;;;;20.55;11.30;;;-6.00;99.90;;;;;;5098316;28;20044;-88
2021/01/31 05:17:54;;;;;;;21.83;12.38;;;-5.90;99.90;;;;;;5111300;28;20127;-88
2021/01/31 05:20:31;;;;;;;22.58;12.40;;;-5.90;99.90;;;;;;5111552;28;20435;-91
2021/01/31 05:23:00;;;;;;;26.67;13.70;;;-5.80;99.90;;;;;;5099636;28;20483;-88
2021/01/31 05:25:30;;;;;;;27.85;14.75;;;-5.70;99.90;;;;;;5076830;28;20058;-90
2021/01/31 05:27:57;;;;;;;27.02;14.65;;;-5.60;99.90;;;;;;5097898;28;20043;-88
2021/01/31 05:30:25;;;;;;;25.60;14.45;;;-5.60;99.90;;;;;;5110337;28;20395;-90
2021/01/31 05:33:07;;;;;;;26.85;14.73;;;-5.50;99.90;;;;;;5098188;28;20480;-88
2021/01/31 05:36:10;;;;;;;29.30;14.48;;;-5.60;99.90;;;;;;5104823;28;20043;-89
2021/01/31 05:38:39;;;;;;;29.20;14.45;;;-5.60;99.90;;;;;;5113939;28;20048;-89
2021/01/31 05:41:33;;;;;;;28.30;15.10;;;-5.60;99.90;;;;;;5114802;28;20040;-89
2021/01/31 05:44:08;;;;;;;27.10;14.23;;;-5.60;99.90;;;;;;5104503;28;20039;-90
2021/01/31 05:46:48;;;;;;;25.17;15.00;;;-5.60;99.90;;;;;;5114376;28;20043;-88
2021/01/31 05:49:42;;;;;;;31.92;15.88;;;-5.60;99.90;;;;;;5112693;28;20051;-88
2021/01/31 05:52:18;;;;;;;29.25;15.25;;;-5.60;99.90;;;;;;5109299;28;20461;-88
2021/01/31 05:54:46;;;;;;;29.52;15.75;;;-5.60;99.90;;;;;;5113547;28;20043;-88
2021/01/31 05:57:33;;;;;;;34.08;17.73;;;-5.50;99.90;;;;;;5116584;28;20039;-87
2021/01/31 06:00:16;;;;;;;37.78;18.15;;;-5.50;99.90;;;;;;5101356;28;20121;-88
2021/01/31 06:03:00;;;;;;;33.10;16.27;;;-5.50;99.90;;;;;;5114084;28;20134;-88
2021/01/31 06:05:28;;;;;;;38.95;18.23;;;-5.50;99.90;;;;;;5110692;28;20264;-88
2021/01/31 06:08:25;;;;;;;32.45;16.63;;;-5.50;99.90;;;;;;5104275;28;20052;-88
2021/01/31 06:11:06;;;;;;;32.13;16.95;;;-5.50;99.90;;;;;;5112172;28;20036;-88
2021/01/31 06:13:34;;;;;;;34.20;16.92;;;-5.60;99.90;;;;;;5105202;28;20040;-88
2021/01/31 06:16:03;;;;;;;29.45;16.50;;;-5.70;99.90;;;;;;5114115;28;20044;-87
2021/01/31 06:18:39;;;;;;;36.22;17.77;;;-5.80;99.90;;;;;;5115073;28;20051;-87
2021/01/31 06:21:39;;;;;;;34.60;15.85;;;-5.80;99.90;;;;;;5115350;28;20047;-87
2021/01/31 06:24:39;;;;;;;25.80;13.05;;;-5.80;99.90;;;;;;5108629;28;20036;-90
2021/01/31 06:27:06;;;;;;;32.78;16.65;;;-5.80;99.90;;;;;;5093926;28;20044;-87
2021/01/31 06:29:40;;;;;;;32.42;15.95;;;-5.80;99.90;;;;;;5110607;28;20142;-87
2021/01/31 06:32:17;;;;;;;26.88;14.85;;;-5.90;99.90;;;;;;5115057;28;20036;-87
2021/01/31 06:34:53;;;;;;;28.80;15.40;;;-5.90;99.90;;;;;;5100562;28;20044;-87
2021/01/31 06:37:28;;;;;;;31.92;15.60;;;-5.90;99.90;;;;;;5114122;28;20494;-88
2021/01/31 06:40:13;;;;;;;30.65;15.90;;;-6.00;99.90;;;;;;5114691;28;20114;-88
2021/01/31 06:43:08;;;;;;;30.58;16.75;;;-6.00;99.90;;;;;;5108085;28;20047;-88
2021/01/31 06:45:41;;;;;;;31.35;15.95;;;-6.00;99.90;;;;;;5080020;28;20067;-88
2021/01/31 06:48:24;;;;;;;35.55;17.85;;;-6.00;99.90;;;;;;5098539;28;20036;-87
2021/01/31 06:51:05;;;;;;;33.38;16.70;;;-6.00;99.90;;;;;;5103290;28;20048;-88
2021/01/31 06:54:09;;;;;;;31.83;16.00;;;-6.00;99.90;;;;;;5108290;28;20406;-87
2021/01/31 06:56:53;;;;;;;32.10;15.57;;;-6.10;99.90;;;;;;5107849;28;20107;-88
2021/01/31 06:59:34;;;;;;;34.67;16.73;;;-6.10;99.90;;;;;;5092755;28;20395;-88
2021/01/31 07:02:27;;;;;;;31.90;16.27;;;-6.10;99.90;;;;;;5112620;28;20066;-88
2021/01/31 07:05:30;;;;;;;31.33;15.85;;;-6.00;99.90;;;;;;5100278;28;20487;-89
2021/01/31 07:08:35;;;;;;;30.70;16.42;;;-6.00;99.90;;;;;;5096503;28;20051;-90
2021/01/31 07:11:25;;;;;;;35.70;18.00;;;-6.00;99.90;;;;;;5088131;28;20047;-87
2021/01/31 07:14:15;;;;;;;36.17;18.45;;;-6.00;99.90;;;;;;5092575;28;20040;-88
2021/01/31 07:17:06;;;;;;;39.88;17.98;;;-6.00;99.90;;;;;;5075787;28;20046;-89
2021/01/31 07:19:44;;;;;;;37.30;17.70;;;-6.00;99.90;;;;;;5112546;28;20046;-88
2021/01/31 07:22:32;;;;;;;34.15;16.45;;;-6.00;99.90;;;;;;5095967;28;20032;-88
2021/01/31 07:25:06;;;;;;;40.03;18.63;;;-6.10;99.90;;;;;;5101343;28;20042;-88
2021/01/31 07:27:47;;;;;;;36.30;17.58;;;-6.00;99.90;;;;;;5113437;28;20042;-88
2021/01/31 07:30:20;;;;;;;39.03;18.35;;;-6.00;99.90;;;;;;5087197;28;20524;-88
2021/01/31 07:32:55;;;;;;;35.95;18.85;;;-6.00;99.90;;;;;;5108752;28;20407;-89
2021/01/31 07:35:28;;;;;;;43.40;19.58;;;-5.90;99.90;;;;;;5113937;28;20161;-87
2021/01/31 07:38:19;;;;;;;38.95;17.95;;;-5.80;99.90;;;;;;5095644;28;20502;-87
2021/01/31 07:40:46;;;;;;;40.35;20.15;;;-5.80;99.90;;;;;;5113456;28;20043;-87
2021/01/31 07:43:16;;;;;;;44.53;19.25;;;-5.80;99.90;;;;;;5110490;28;20048;-89
2021/01/31 07:45:42;;;;;;;36.83;18.42;;;-5.80;99.90;;;;;;5102230;28;20039;-87
2021/01/31 07:48:39;;;;;;;39.28;18.50;;;-5.80;99.90;;;;;;5095266;28;20085;-88
2021/01/31 07:51:06;;;;;;;43.42;19.10;;;-5.80;99.90;;;;;;5095376;28;20049;-88
2021/01/31 07:53:40;;;;;;;42.95;20.60;;;-5.80;99.90;;;;;;5112914;28;20044;-89
2021/01/31 07:56:32;;;;;;;49.15;21.85;;;-5.80;99.90;;;;;;5112846;28;20493;-88
2021/01/31 07:59:08;;;;;;;55.38;23.52;;;-5.60;99.90;;;;;;5081963;28;20055;-88
2021/01/31 08:01:40;;;;;;;44.25;21.13;;;-5.50;99.90;;;;;;5109705;28;20056;-90
2021/01/31 08:04:16;;;;;;;45.65;21.80;;;-5.50;99.90;;;;;;5091977;28;20040;-88
2021/01/31 08:06:55;;;;;;;52.13;22.80;;;-5.40;99.90;;;;;;5080126;28;20067;-89
2021/01/31 08:09:27;;;;;;;50.97;21.80;;;-5.40;99.90;;;;;;5081842;28;20039;-89
2021/01/31 08:12:08;;;;;;;48.80;21.05;;;-5.30;99.90;;;;;;5080109;28;20039;-89
2021/01/31 08:15:05;;;;;;;52.22;22.35;;;-5.20;99.90;;;;;;5079801;28;20047;-90
2021/01/31 08:17:54;;;;;;;47.83;20.95;;;-5.20;99.90;;;;;;5080520;28;20036;-90
2021/01/31 08:20:31;;;;;;;44.15;21.85;;;-5.10;99.90;;;;;;5072498;28;20048;-87
2021/01/31 08:23:00;;;;;;;58.45;24.20;;;-5.00;99.90;;;;;;5105346;28;20545;-87
2021/01/31 08:25:25;;;;;;;52.38;23.75;;;-4.90;99.90;;;;;;5102680;28;20123;-88
2021/01/31 08:28:15;;;;;;;58.20;25.05;;;-4.80;99.90;;;;;;5107787;28;20111;-87
2021/01/31 08:31:04;;;;;;;68.28;25.80;;;-4.70;99.90;;;;;;5101588;28;20048;-86
2021/01/31 08:33:35;;;;;;;60.85;24.85;;;-4.70;99.90;;;;;;5080702;28;20040;-88
2021/01/31 08:36:18;;;;;;;64.32;24.77;;;-4.60;99.90;;;;;;5105970;28;20044;-88
2021/01/31 08:38:49;;;;;;;56.03;23.50;;;-4.50;99.90;;;;;;5096942;28;20044;-86
2021/01/31 08:41:36;;;;;;;51.92;23.30;;;-4.40;99.90;;;;;;5092208;28;20043;-86
2021/01/31 08:44:11;;;;;;;61.70;25.45;;;-4.30;99.90;;;;;;5092644;28;20097;-87
2021/01/31 08:46:56;;;;;;;56.92;24.02;;;-4.20;99.90;;;;;;5103760;28;20044;-89
2021/01/31 08:49:22;;;;;;;57.08;24.67;;;-4.10;99.90;;;;;;5109811;28;20114;-86
2021/01/31 08:52:06;;;;;;;60.15;25.30;;;-4.00;99.90;;;;;;5100629;28;20074;-85
2021/01/31 08:54:32;;;;;;;56.40;24.98;;;-3.90;99.90;;;;;;5090756;28;20044;-85
2021/01/31 08:57:00;;;;;;;55.67;24.52;;;-3.80;99.90;;;;;;5088130;28;20605;-85
2021/01/31 08:59:29;;;;;;;62.53;26.13;;;-3.80;99.90;;;;;;5102258;28;20046;-87
2021/01/31 09:02:06;;;;;;;53.60;24.85;;;-3.70;99.90;;;;;;5095573;28;20130;-88
2021/01/31 09:04:33;;;;;;;57.63;25.17;;;-3.70;99.90;;;;;;5100243;28;20382;-88
2021/01/31 09:07:02;;;;;;;50.97;23.73;;;-3.60;99.90;;;;;;5094191;28;20040;-91
2021/01/31 09:09:34;;;;;;;52.20;24.02;;;-3.50;99.90;;;;;;5101431;28;20118;-90
2021/01/31 09:12:07;;;;;;;50.40;23.52;;;-3.40;99.90;;;;;;5100120;28;20055;-89
2021/01/31 09:14:41;;;;;;;50.70;23.65;;;-3.30;99.90;;;;;;5106165;28;20038;-83
2021/01/31 09:17:10;;;;;;;62.47;25.95;;;-3.30;99.90;;;;;;5103528;28;20075;-85
2021/01/31 09:19:36;;;;;;;52.30;22.98;;;-3.20;99.90;;;;;;5101031;28;20039;-85
2021/01/31 09:22:07;;;;;;;57.50;23.88;;;-3.10;99.90;;;;;;5099847;28;20055;-88
2021/01/31 09:24:39;;;;;;;50.40;22.45;;;-3.00;99.90;;;;;;5100022;28;20036;-85
2021/01/31 09:27:07;;;;;;;45.70;21.50;;;-3.00;99.90;;;;;;5104015;28;20040;-85
2021/01/31 09:29:34;;;;;;;51.42;23.92;;;-2.90;99.90;;;;;;5107668;28;20085;-85
2021/01/31 09:32:39;;;;;;;47.30;23.70;;;-2.70;99.90;;;;;;5098732;28;20589;-84
2021/01/31 09:35:08;;;;;;;48.30;22.17;;;-2.70;99.90;;;;;;5101990;28;20044;-85
2021/01/31 09:37:35;;;;;;;46.13;22.08;;;-2.60;99.90;;;;;;5093062;28;20063;-87
2021/01/31 09:40:07;;;;;;;55.90;23.25;;;-2.50;99.90;;;;;;5101888;28;20602;-84
2021/01/31 09:42:36;;;;;;;47.85;22.40;;;-2.50;99.90;;;;;;5093639;28;20028;-85
2021/01/31 09:45:08;;;;;;;43.35;21.48;;;-2.40;99.90;;;;;;5101931;28;20031;-87
2021/01/31 09:47:34;;;;;;;45.33;21.60;;;-2.40;99.90;;;;;;5101072;28;20387;-87
2021/01/31 09:50:08;;;;;;;42.83;21.17;;;-2.30;99.90;;;;;;5109218;28;20565;-84
2021/01/31 09:52:44;;;;;;;43.50;21.05;;;-2.20;99.90;;;;;;5102258;28;20422;-84
2021/01/31 09:55:32;;;;;;;36.35;18.52;;;-2.10;99.90;;;;;;5097980;28;20047;-85
2021/01/31 09:57:58;;;;;;;40.30;18.58;;;-2.00;99.90;;;;;;5110360;28;20464;-85
2021/01/31 10:00:28;;;;;;;38.03;19.75;;;-1.90;99.90;;;;;;5093113;28;20048;-84
2021/01/31 10:03:06;;;;;;;38.20;19.05;;;-1.90;99.90;;;;;;5108784;28;20119;-86
2021/01/31 10:05:35;;;;;;;39.30;18.23;;;-1.80;99.90;;;;;;5110014;28;20048;-85
2021/01/31 10:08:07;;;;;;;33.42;18.05;;;-1.80;99.90;;;;;;5098636;28;20247;-85
2021/01/31 10:10:39;;;;;;;36.78;18.52;;;-1.70;99.90;;;;;;5103632;28;20036;-85
2021/01/31 10:13:34;;;;;;;41.05;20.27;;;-1.60;99.90;;;;;;5098678;28;20043;-83
2021/01/31 10:16:02;;;;;;;41.05;20.45;;;-1.50;99.90;;;;;;5106718;28;20134;-83
2021/01/31 10:18:33;;;;;;;35.30;19.35;;;-1.40;99.90;;;;;;5102843;28;20460;-86
2021/01/31 10:21:36;;;;;;;34.80;18.13;;;-1.40;99.90;;;;;;5096439;28;20440;-87
2021/01/31 10:24:20;;;;;;;31.35;17.35;;;-1.30;99.90;;;;;;5076364;28;20051;-88
2021/01/31 10:26:47;;;;;;;32.42;17.45;;;-1.30;99.90;;;;;;5110653;28;20044;-89
2021/01/31 10:29:42;;;;;;;30.75;15.48;;;-1.20;99.90;;;;;;5098891;28;20123;-85
2021/01/31 10:32:18;;;;;;;34.10;17.08;;;-1.10;99.90;;;;;;5087166;28;20052;-85
2021/01/31 10:34:44;;;;;;;26.75;15.43;;;-1.10;99.90;;;;;;5114408;28;20542;-89
2021/01/31 10:37:18;;;;;;;29.58;16.50;;;-1.10;99.90;;;;;;5108682;28;20483;-85
2021/01/31 10:39:46;;;;;;;29.73;16.40;;;-1.00;99.90;;;;;;5114345;28;20061;-88
2021/01/31 10:42:12;;;;;;;29.00;16.25;;;-1.00;99.90;;;;;;5103707;28;20564;-85
2021/01/31 10:44:38;;;;;;;27.38;15.30;;;-0.90;99.90;;;;;;5091612;28;20127;-85
2021/01/31 10:47:04;;;;;;;29.52;15.77;;;-0.90;99.90;;;;;;5087220;28;20154;-84
2021/01/31 10:49:30;;;;;;;27.92;15.77;;;-0.90;99.90;;;;;;5103894;28;20139;-84
2021/01/31 10:51:56;;;;;;;26.40;14.63;;;-0.70;99.90;;;;;;5112829;28;20046;-85
2021/01/31 10:54:23;;;;;;;28.20;15.52;;;-0.70;99.90;;;;;;5107307;28;20059;-84
2021/01/31 10:56:48;;;;;;;26.63;15.45;;;-0.70;99.90;;;;;;5110587;28;20043;-89
2021/01/31 10:59:14;;;;;;;24.67;15.02;;;-0.60;99.90;;;;;;5104303;28;20036;-85
2021/01/31 11:01:48;;;;;;;25.52;14.18;;;-0.50;99.90;;;;;;5094139;28;20056;-86
2021/01/31 11:04:16;;;;;;;26.27;15.18;;;-0.50;99.90;;;;;;5085924;28;20471;-87
2021/01/31 11:06:44;;;;;;;27.48;14.23;;;-0.40;99.90;;;;;;5114504;28;20043;-87
2021/01/31 11:09:10;;;;;;;29.10;14.90;;;-0.40;99.90;;;;;;5109538;28;20147;-87
2021/01/31 11:11:37;;;;;;;25.90;14.85;;;-0.20;99.90;;;;;;5073503;28;20054;-87
2021/01/31 11:14:04;;;;;;;23.02;13.65;;;-0.30;99.90;;;;;;5074510;28;20097;-87
2021/01/31 11:16:30;;;;;;;24.05;12.82;;;-0.20;99.90;;;;;;5097516;28;20465;-87
2021/01/31 11:18:55;;;;;;;29.17;15.55;;;-0.10;99.90;;;;;;5069928;28;20053;-86
2021/01/31 11:21:25;;;;;;;24.88;14.75;;;0.00;99.90;;;;;;5110461;28;20063;-88
2021/01/31 11:23:53;;;;;;;26.10;14.32;;;0.10;99.90;;;;;;5103611;28;20048;-91
2021/01/31 11:26:19;;;;;;;26.38;13.75;;;0.10;99.90;;;;;;5097584;28;20044;-86
2021/01/31 11:28:44;;;;;;;24.38;13.80;;;0.10;99.90;;;;;;5092099;28;20143;-86
2021/01/31 11:31:11;;;;;;;22.67;14.15;;;0.20;99.90;;;;;;5077373;28;20436;-85
2021/01/31 11:33:38;;;;;;;25.67;14.20;;;0.20;99.90;;;;;;5104014;28;20047;-85
2021/01/31 11:36:04;;;;;;;24.10;13.38;;;0.30;99.90;;;;;;5097129;28;20043;-85
2021/01/31 11:38:30;;;;;;;23.50;12.75;;;0.40;99.90;;;;;;5097470;28;20046;-85
2021/01/31 11:40:56;;;;;;;22.88;13.82;;;0.40;99.90;;;;;;5080742;28;20039;-84
2021/01/31 11:43:21;;;;;;;24.63;13.50;;;0.50;99.90;;;;;;5080749;28;20055;-84
2021/01/31 11:45:52;;;;;;;23.33;12.25;;;0.50;99.90;;;;;;5060818;28;20440;-84
2021/01/31 11:48:19;;;;;;;;;;;0.50;99.90;;;;;;5095677;28;20043;-85
2021/01/31 11:50:46;;;;;;;27.95;14.95;;;0.60;99.90;;;;;;5077104;28;19973;-85
2021/01/31 11:53:12;;;;;;;22.75;12.40;;;0.60;99.90;;;;;;5077380;28;20040;-83
2021/01/31 11:55:38;;;;;;;21.60;13.23;;;0.70;99.90;;;;;;5091771;28;20043;-83
2021/01/31 11:58:03;;;;;;;21.77;12.52;;;0.80;99.90;;;;;;5103011;28;20044;-83
2021/01/31 12:00:29;;;;;;;19.60;11.45;;;0.80;99.90;;;;;;5086237;28;20050;-85
2021/01/31 12:02:55;;;;;;;19.13;12.18;;;0.80;99.90;;;;;;5099442;28;20384;-86
2021/01/31 12:05:23;;;;;;;24.45;13.35;;;0.90;99.90;;;;;;5105436;28;20043;-83
2021/01/31 12:07:51;;;;;;;19.67;12.13;;;0.90;99.90;;;;;;5101842;28;20151;-86
2021/01/31 12:10:17;;;;;;;17.63;10.85;;;0.90;99.90;;;;;;5107920;28;20476;-83
2021/01/31 12:12:43;;;;;;;21.40;12.20;;;0.90;99.90;;;;;;5107485;28;20093;-84
2021/01/31 12:15:12;;;;;;;15.65;10.95;;;0.90;99.90;;;;;;5101649;28;20036;-84
2021/01/31 12:17:38;;;;;;;18.00;11.75;;;0.90;99.90;;;;;;5111859;28;20054;-86
2021/01/31 12:20:06;;;;;;;17.58;10.80;;;0.80;99.90;;;;;;5102576;28;20116;-84
2021/01/31 12:22:32;;;;;;;15.40;9.18;;;0.90;99.90;;;;;;5106789;28;20063;-84
2021/01/31 12:24:57;;;;;;;17.52;9.75;;;0.80;99.90;;;;;;5091815;28;20467;-84
2021/01/31 12:27:28;;;;;;;15.95;10.07;;;0.80;99.90;;;;;;5105320;28;20467;-86
2021/01/31 12:29:55;;;;;;;15.85;10.55;;;0.80;99.90;;;;;;5097367;28;20067;-88
2021/01/31 12:32:21;;;;;;;19.67;10.90;;;0.90;99.90;;;;;;5111842;28;20494;-84
2021/01/31 12:34:47;;;;;;;19.40;11.10;;;0.90;99.90;;;;;;5098485;28;20044;-85
2021/01/31 12:37:14;;;;;;;17.80;11.00;;;1.00;99.90;;;;;;5111380;28;20074;-85
2021/01/31 12:39:40;;;;;;;18.45;11.20;;;1.00;99.90;;;;;;5111256;28;20126;-86
2021/01/31 12:42:06;;;;;;;16.83;11.05;;;1.10;99.90;;;;;;5101339;28;20056;-84
2021/01/31 12:44:32;;;;;;;16.67;11.20;;;1.10;99.90;;;;;;5112235;28;20048;-85
2021/01/31 12:46:58;;;;;;;21.98;11.38;;;1.20;99.90;;;;;;5110902;28;20043;-89
2021/01/31 12:49:23;;;;;;;15.60;10.07;;;1.10;99.90;;;;;;5094152;28;20092;-86
2021/01/31 12:51:49;;;;;;;16.92;10.23;;;1.10;99.90;;;;;;5106760;28;20046;-86
2021/01/31 12:54:15;;;;;;;15.45;8.93;;;1.10;99.90;;;;;;5100581;28;20043;-86
2021/01/31 12:56:41;;;;;;;14.85;9.23;;;1.10;99.90;;;;;;5100434;28;20127;-86
2021/01/31 12:59:07;;;;;;;14.82;9.07;;;1.10;99.90;;;;;;5109839;28;20054;-87